sensor_id;sensor_type;location;lat;lon;timestamp;temperature;humidity
1958;DHT22;979;51.076;13.748;2024-02-28T00:39:29;8.20;84.00
1958;DHT22;979;51.076;13.748;2024-02-28T00:42:00;8.20;84.20
1958;DHT22;979;51.076;13.748;2024-02-28T00:44:58;8.30;84.70
1958;DHT22;979;51.076;13.748;2024-02-28T00:47:38;8.30;84.60
1958;DHT22;979;51.076;13.748;2024-02-28T00:50:19;8.30;84.60
1958;DHT22;979;51.076;13.748;2024-02-28T00:53:04;8.40;84.60
1958;DHT22;979;51.076;13.748;2024-02-28T00:55:43;8.40;84.70
1958;DHT22;979;51.076;13.748;2024-02-28T00:58:37;8.30;84.60
1958;DHT22;979;51.076;13.748;2024-02-28T01:01:19;8.40;84.40
1958;DHT22;979;51.076;13.748;2024-02-28T01:03:52;8.40;84.40
1958;DHT22;979;51.076;13.748;2024-02-28T01:06:30;8.40;84.90
1958;DHT22;979;51.076;13.748;2024-02-28T01:09:08;8.40;84.80
1958;DHT22;979;51.076;13.748;2024-02-28T01:11:45;8.40;84.80
1958;DHT22;979;51.076;13.748;2024-02-28T01:14:19;8.40;84.80
1958;DHT22;979;51.076;13.748;2024-02-28T01:16:48;8.50;85.00
1958;DHT22;979;51.076;13.748;2024-02-28T01:19:22;8.60;84.90
1958;DHT22;979;51.076;13.748;2024-02-28T01:21:59;8.60;84.80
1958;DHT22;979;51.076;13.748;2024-02-28T01:24:33;8.60;84.30
1958;DHT22;979;51.076;13.748;2024-02-28T01:27:13;8.60;84.60
1958;DHT22;979;51.076;13.748;2024-02-28T01:29:56;8.50;84.60
1958;DHT22;979;51.076;13.748;2024-02-28T01:32:36;8.50;84.50
1958;DHT22;979;51.076;13.748;2024-02-28T01:35:15;8.30;84.30
1958;DHT22;979;51.076;13.748;2024-02-28T01:37:53;8.40;84.10
1958;DHT22;979;51.076;13.748;2024-02-28T01:40:25;8.30;84.50
1958;DHT22;979;51.076;13.748;2024-02-28T01:43:11;8.30;84.40
1958;DHT22;979;51.076;13.748;2024-02-28T01:45:49;8.20;84.20
1958;DHT22;979;51.076;13.748;2024-02-28T01:48:26;8.20;84.30
1958;DHT22;979;51.076;13.748;2024-02-28T01:51:03;8.10;84.60
1958;DHT22;979;51.076;13.748;2024-02-28T01:53:36;8.20;84.70
1958;DHT22;979;51.076;13.748;2024-02-28T01:56:26;8.10;85.10
1958;DHT22;979;51.076;13.748;2024-02-28T01:59:02;8.10;85.20
1958;DHT22;979;51.076;13.748;2024-02-28T02:02:02;8.10;85.00
1958;DHT22;979;51.076;13.748;2024-02-28T02:04:49;8.20;85.30
1958;DHT22;979;51.076;13.748;2024-02-28T02:07:31;8.10;85.90
1958;DHT22;979;51.076;13.748;2024-02-28T02:10:16;8.20;85.40
1958;DHT22;979;51.076;13.748;2024-02-28T02:13:04;8.10;85.00
1958;DHT22;979;51.076;13.748;2024-02-28T02:15:56;8.10;85.20
1958;DHT22;979;51.076;13.748;2024-02-28T02:18:33;8.20;85.40
1958;DHT22;979;51.076;13.748;2024-02-28T02:21:26;8.20;85.40
1958;DHT22;979;51.076;13.748;2024-02-28T02:24:06;8.20;85.50
1958;DHT22;979;51.076;13.748;2024-02-28T02:26:55;8.30;85.50
1958;DHT22;979;51.076;13.748;2024-02-28T02:29:40;8.20;85.10
1958;DHT22;979;51.076;13.748;2024-02-28T02:32:12;8.20;85.10
1958;DHT22;979;51.076;13.748;2024-02-28T02:34:43;8.20;85.30
1958;DHT22;979;51.076;13.748;2024-02-28T02:37:17;8.10;85.50
1958;DHT22;979;51.076;13.748;2024-02-28T02:40:02;8.10;85.60
1958;DHT22;979;51.076;13.748;2024-02-28T02:42:42;8.10;85.60
1958;DHT22;979;51.076;13.748;2024-02-28T02:45:33;8.10;85.80
1958;DHT22;979;51.076;13.748;2024-02-28T02:48:21;8.10;85.70
1958;DHT22;979;51.076;13.748;2024-02-28T02:50:52;8.10;85.70
1958;DHT22;979;51.076;13.748;2024-02-28T02:53:36;8.00;85.60
1958;DHT22;979;51.076;13.748;2024-02-28T02:56:10;8.30;86.00
1958;DHT22;979;51.076;13.748;2024-02-28T02:58:46;8.00;86.50
1958;DHT22;979;51.076;13.748;2024-02-28T03:01:15;8.10;85.60
1958;DHT22;979;51.076;13.748;2024-02-28T03:03:44;8.00;85.50
1958;DHT22;979;51.076;13.748;2024-02-28T03:06:23;7.90;85.70
1958;DHT22;979;51.076;13.748;2024-02-28T03:08:56;8.00;85.80
1958;DHT22;979;51.076;13.748;2024-02-28T03:11:25;8.00;86.00
1958;DHT22;979;51.076;13.748;2024-02-28T03:13:56;8.00;85.80
1958;DHT22;979;51.076;13.748;2024-02-28T03:16:25;8.00;86.40
1958;DHT22;979;51.076;13.748;2024-02-28T03:18:54;8.00;85.70
1958;DHT22;979;51.076;13.748;2024-02-28T03:21:41;8.00;85.50
1958;DHT22;979;51.076;13.748;2024-02-28T03:24:15;8.10;85.60
1958;DHT22;979;51.076;13.748;2024-02-28T03:26:49;7.80;85.30
1958;DHT22;979;51.076;13.748;2024-02-28T03:29:43;7.90;85.50
1958;DHT22;979;51.076;13.748;2024-02-28T03:32:27;7.90;85.50
1958;DHT22;979;51.076;13.748;2024-02-28T03:35:03;7.90;85.20
1958;DHT22;979;51.076;13.748;2024-02-28T03:37:37;7.90;85.10
1958;DHT22;979;51.076;13.748;2024-02-28T03:40:20;7.90;85.70
1958;DHT22;979;51.076;13.748;2024-02-28T03:43:05;7.80;85.30
1958;DHT22;979;51.076;13.748;2024-02-28T03:45:48;7.80;85.60
1958;DHT22;979;51.076;13.748;2024-02-28T03:48:25;7.80;85.70
1958;DHT22;979;51.076;13.748;2024-02-28T03:50:53;7.70;85.40
1958;DHT22;979;51.076;13.748;2024-02-28T03:53:22;7.90;85.50
1958;DHT22;979;51.076;13.748;2024-02-28T03:56:06;7.90;85.80
1958;DHT22;979;51.076;13.748;2024-02-28T03:58:57;7.60;85.50
1958;DHT22;979;51.076;13.748;2024-02-28T04:01:26;7.50;85.70
1958;DHT22;979;51.076;13.748;2024-02-28T04:03:54;7.40;85.90
1958;DHT22;979;51.076;13.748;2024-02-28T04:06:23;7.40;86.30
1958;DHT22;979;51.076;13.748;2024-02-28T04:08:52;7.30;86.30
1958;DHT22;979;51.076;13.748;2024-02-28T04:11:21;7.20;86.80
1958;DHT22;979;51.076;13.748;2024-02-28T04:13:50;7.50;87.20
1958;DHT22;979;51.076;13.748;2024-02-28T04:16:20;7.50;87.20
1958;DHT22;979;51.076;13.748;2024-02-28T04:18:48;7.30;87.40
1958;DHT22;979;51.076;13.748;2024-02-28T04:21:17;7.30;87.40
1958;DHT22;979;51.076;13.748;2024-02-28T04:23:46;7.30;87.60
1958;DHT22;979;51.076;13.748;2024-02-28T04:26:14;7.30;87.50
1958;DHT22;979;51.076;13.748;2024-02-28T04:28:43;7.20;87.50
1958;DHT22;979;51.076;13.748;2024-02-28T04:31:11;7.20;87.70
1958;DHT22;979;51.076;13.748;2024-02-28T04:33:41;7.20;88.00
1958;DHT22;979;51.076;13.748;2024-02-28T04:36:10;7.10;88.20
1958;DHT22;979;51.076;13.748;2024-02-28T04:38:39;7.10;88.40
1958;DHT22;979;51.076;13.748;2024-02-28T04:41:07;7.10;88.40
1958;DHT22;979;51.076;13.748;2024-02-28T04:43:36;7.10;88.60
1958;DHT22;979;51.076;13.748;2024-02-28T04:46:04;7.10;88.60
1958;DHT22;979;51.076;13.748;2024-02-28T04:48:32;7.10;88.50
1958;DHT22;979;51.076;13.748;2024-02-28T04:51:03;7.10;89.50
1958;DHT22;979;51.076;13.748;2024-02-28T04:53:31;7.10;89.00
1958;DHT22;979;51.076;13.748;2024-02-28T04:56:00;7.20;89.90
1958;DHT22;979;51.076;13.748;2024-02-28T04:58:28;7.10;89.00
1958;DHT22;979;51.076;13.748;2024-02-28T05:00:57;7.20;89.20
1958;DHT22;979;51.076;13.748;2024-02-28T05:03:25;7.20;89.10
1958;DHT22;979;51.076;13.748;2024-02-28T05:05:54;7.20;89.30
1958;DHT22;979;51.076;13.748;2024-02-28T05:08:24;7.20;89.40
1958;DHT22;979;51.076;13.748;2024-02-28T05:10:54;7.30;89.20
1958;DHT22;979;51.076;13.748;2024-02-28T05:13:22;7.40;89.20
1958;DHT22;979;51.076;13.748;2024-02-28T05:15:51;7.30;89.60
1958;DHT22;979;51.076;13.748;2024-02-28T05:18:20;7.40;89.20
1958;DHT22;979;51.076;13.748;2024-02-28T05:20:48;7.30;89.00
1958;DHT22;979;51.076;13.748;2024-02-28T05:23:17;7.40;89.30
1958;DHT22;979;51.076;13.748;2024-02-28T05:25:47;7.60;89.20
1958;DHT22;979;51.076;13.748;2024-02-28T05:28:15;7.40;88.70
1958;DHT22;979;51.076;13.748;2024-02-28T05:30:44;7.40;88.40
1958;DHT22;979;51.076;13.748;2024-02-28T05:33:16;7.30;88.30
1958;DHT22;979;51.076;13.748;2024-02-28T05:35:45;7.20;88.50
1958;DHT22;979;51.076;13.748;2024-02-28T05:38:14;7.20;88.60
1958;DHT22;979;51.076;13.748;2024-02-28T05:40:42;7.10;88.90
1958;DHT22;979;51.076;13.748;2024-02-28T05:43:11;7.10;89.30
1958;DHT22;979;51.076;13.748;2024-02-28T05:45:40;7.10;89.60
1958;DHT22;979;51.076;13.748;2024-02-28T05:48:11;7.00;89.50
1958;DHT22;979;51.076;13.748;2024-02-28T05:50:39;7.00;89.70
1958;DHT22;979;51.076;13.748;2024-02-28T05:53:08;6.90;89.80
1958;DHT22;979;51.076;13.748;2024-02-28T05:55:36;6.90;90.00
1958;DHT22;979;51.076;13.748;2024-02-28T05:58:04;7.00;90.30
1958;DHT22;979;51.076;13.748;2024-02-28T06:00:35;6.80;90.40
1958;DHT22;979;51.076;13.748;2024-02-28T06:03:05;6.80;90.90
1958;DHT22;979;51.076;13.748;2024-02-28T06:05:35;6.80;90.60
1958;DHT22;979;51.076;13.748;2024-02-28T06:08:08;6.80;90.70
1958;DHT22;979;51.076;13.748;2024-02-28T06:10:38;6.90;90.70
1958;DHT22;979;51.076;13.748;2024-02-28T06:13:09;6.90;90.80
1958;DHT22;979;51.076;13.748;2024-02-28T06:15:41;6.90;90.70
1958;DHT22;979;51.076;13.748;2024-02-28T06:18:10;6.90;90.80
1958;DHT22;979;51.076;13.748;2024-02-28T06:20:38;7.00;90.90
1958;DHT22;979;51.076;13.748;2024-02-28T06:23:07;7.00;90.80
1958;DHT22;979;51.076;13.748;2024-02-28T06:25:45;7.10;90.70
1958;DHT22;979;51.076;13.748;2024-02-28T06:28:14;7.10;90.60
1958;DHT22;979;51.076;13.748;2024-02-28T06:30:44;7.10;90.60
1958;DHT22;979;51.076;13.748;2024-02-28T06:33:13;7.10;90.80
1958;DHT22;979;51.076;13.748;2024-02-28T06:35:41;7.20;90.40
1958;DHT22;979;51.076;13.748;2024-02-28T06:38:10;7.30;90.40
1958;DHT22;979;51.076;13.748;2024-02-28T06:40:38;7.10;90.30
1958;DHT22;979;51.076;13.748;2024-02-28T06:43:06;6.90;90.20
1958;DHT22;979;51.076;13.748;2024-02-28T06:45:34;7.10;90.40
1958;DHT22;979;51.076;13.748;2024-02-28T06:48:07;7.10;90.40
1958;DHT22;979;51.076;13.748;2024-02-28T06:50:35;7.10;90.50
1958;DHT22;979;51.076;13.748;2024-02-28T06:53:04;7.10;90.60
1958;DHT22;979;51.076;13.748;2024-02-28T06:55:32;7.10;90.70
1958;DHT22;979;51.076;13.748;2024-02-28T06:58:00;7.10;90.50
1958;DHT22;979;51.076;13.748;2024-02-28T07:00:29;7.20;90.50
1958;DHT22;979;51.076;13.748;2024-02-28T07:02:57;7.10;90.50
1958;DHT22;979;51.076;13.748;2024-02-28T07:05:28;7.00;90.80
1958;DHT22;979;51.076;13.748;2024-02-28T07:08:00;7.00;90.70
1958;DHT22;979;51.076;13.748;2024-02-28T07:10:31;7.10;90.70
1958;DHT22;979;51.076;13.748;2024-02-28T07:13:00;7.10;90.50
1958;DHT22;979;51.076;13.748;2024-02-28T07:15:28;7.10;90.50
1958;DHT22;979;51.076;13.748;2024-02-28T07:17:56;7.00;90.50
1958;DHT22;979;51.076;13.748;2024-02-28T07:20:26;7.00;90.50
1958;DHT22;979;51.076;13.748;2024-02-28T07:22:54;7.00;90.50
1958;DHT22;979;51.076;13.748;2024-02-28T07:25:23;7.00;90.70
1958;DHT22;979;51.076;13.748;2024-02-28T07:27:52;7.00;90.70
1958;DHT22;979;51.076;13.748;2024-02-28T07:30:21;7.00;90.90
1958;DHT22;979;51.076;13.748;2024-02-28T07:32:49;7.10;90.80
1958;DHT22;979;51.076;13.748;2024-02-28T07:35:20;7.10;90.70
1958;DHT22;979;51.076;13.748;2024-02-28T07:37:54;7.10;90.80
1958;DHT22;979;51.076;13.748;2024-02-28T07:40:22;7.10;90.80
1958;DHT22;979;51.076;13.748;2024-02-28T07:42:50;7.10;90.80
1958;DHT22;979;51.076;13.748;2024-02-28T07:45:19;7.10;90.80
1958;DHT22;979;51.076;13.748;2024-02-28T07:47:47;7.20;90.80
1958;DHT22;979;51.076;13.748;2024-02-28T07:50:16;7.20;90.80
1958;DHT22;979;51.076;13.748;2024-02-28T07:52:46;7.20;90.60
1958;DHT22;979;51.076;13.748;2024-02-28T07:55:16;7.20;90.60
1958;DHT22;979;51.076;13.748;2024-02-28T07:57:52;7.20;90.50
1958;DHT22;979;51.076;13.748;2024-02-28T08:00:21;7.30;90.60
1958;DHT22;979;51.076;13.748;2024-02-28T08:02:52;7.30;90.50
1958;DHT22;979;51.076;13.748;2024-02-28T08:05:21;7.40;90.50
1958;DHT22;979;51.076;13.748;2024-02-28T08:07:49;7.40;90.20
1958;DHT22;979;51.076;13.748;2024-02-28T08:10:19;7.40;90.10
1958;DHT22;979;51.076;13.748;2024-02-28T08:12:48;7.40;90.20
1958;DHT22;979;51.076;13.748;2024-02-28T08:15:16;7.40;90.20
1958;DHT22;979;51.076;13.748;2024-02-28T08:17:45;7.30;90.00
1958;DHT22;979;51.076;13.748;2024-02-28T08:20:13;7.30;90.00
1958;DHT22;979;51.076;13.748;2024-02-28T08:22:42;7.20;90.10
1958;DHT22;979;51.076;13.748;2024-02-28T08:25:10;7.20;90.20
1958;DHT22;979;51.076;13.748;2024-02-28T08:27:45;7.20;90.10
1958;DHT22;979;51.076;13.748;2024-02-28T08:30:14;7.20;90.20
1958;DHT22;979;51.076;13.748;2024-02-28T08:32:43;7.20;90.10
1958;DHT22;979;51.076;13.748;2024-02-28T08:35:17;7.20;90.30
1958;DHT22;979;51.076;13.748;2024-02-28T08:38:17;7.30;90.40
1958;DHT22;979;51.076;13.748;2024-02-28T08:40:45;7.30;90.40
1958;DHT22;979;51.076;13.748;2024-02-28T08:43:18;7.40;90.30
1958;DHT22;979;51.076;13.748;2024-02-28T08:45:51;7.30;90.00
1958;DHT22;979;51.076;13.748;2024-02-28T08:48:23;7.50;90.00
1958;DHT22;979;51.076;13.748;2024-02-28T08:51:02;7.20;90.00
1958;DHT22;979;51.076;13.748;2024-02-28T08:53:36;7.20;90.10
1958;DHT22;979;51.076;13.748;2024-02-28T08:56:06;7.20;90.30
1958;DHT22;979;51.076;13.748;2024-02-28T08:58:41;7.20;90.40
1958;DHT22;979;51.076;13.748;2024-02-28T09:01:13;7.20;90.40
1958;DHT22;979;51.076;13.748;2024-02-28T09:03:46;7.20;90.60
1958;DHT22;979;51.076;13.748;2024-02-28T09:06:24;7.40;90.80
1958;DHT22;979;51.076;13.748;2024-02-28T09:08:57;7.20;90.90
1958;DHT22;979;51.076;13.748;2024-02-28T09:11:33;7.30;91.00
1958;DHT22;979;51.076;13.748;2024-02-28T09:14:14;7.50;90.70
1958;DHT22;979;51.076;13.748;2024-02-28T09:16:48;7.60;90.70
1958;DHT22;979;51.076;13.748;2024-02-28T09:19:18;7.60;90.70
1958;DHT22;979;51.076;13.748;2024-02-28T09:21:47;7.90;90.50
1958;DHT22;979;51.076;13.748;2024-02-28T09:24:23;8.10;90.20
1958;DHT22;979;51.076;13.748;2024-02-28T09:27:03;7.90;89.70
1958;DHT22;979;51.076;13.748;2024-02-28T09:29:41;7.80;89.10
1958;DHT22;979;51.076;13.748;2024-02-28T09:32:10;7.90;89.40
1958;DHT22;979;51.076;13.748;2024-02-28T09:34:39;7.90;89.30
1958;DHT22;979;51.076;13.748;2024-02-28T09:37:07;7.90;88.90
1958;DHT22;979;51.076;13.748;2024-02-28T09:39:40;8.00;88.60
1958;DHT22;979;51.076;13.748;2024-02-28T09:42:18;8.00;88.50
1958;DHT22;979;51.076;13.748;2024-02-28T09:44:50;8.00;88.20
1958;DHT22;979;51.076;13.748;2024-02-28T09:47:39;8.10;88.00
1958;DHT22;979;51.076;13.748;2024-02-28T09:50:13;8.10;87.50
1958;DHT22;979;51.076;13.748;2024-02-28T09:52:41;8.20;87.50
1958;DHT22;979;51.076;13.748;2024-02-28T09:55:22;8.30;87.00
1958;DHT22;979;51.076;13.748;2024-02-28T09:58:02;8.20;86.20
1958;DHT22;979;51.076;13.748;2024-02-28T10:00:35;8.00;85.20
1958;DHT22;979;51.076;13.748;2024-02-28T10:03:05;8.00;85.00
1958;DHT22;979;51.076;13.748;2024-02-28T10:05:35;7.90;85.00
1958;DHT22;979;51.076;13.748;2024-02-28T10:08:07;7.80;85.10
1958;DHT22;979;51.076;13.748;2024-02-28T10:10:45;7.80;85.90
1958;DHT22;979;51.076;13.748;2024-02-28T10:13:16;7.80;85.10
1958;DHT22;979;51.076;13.748;2024-02-28T10:15:47;7.60;84.90
1958;DHT22;979;51.076;13.748;2024-02-28T10:18:15;7.80;84.90
1958;DHT22;979;51.076;13.748;2024-02-28T10:20:44;7.80;85.10
1958;DHT22;979;51.076;13.748;2024-02-28T10:23:12;7.70;85.10
1958;DHT22;979;51.076;13.748;2024-02-28T10:25:43;8.00;84.80
1958;DHT22;979;51.076;13.748;2024-02-28T10:28:23;8.00;84.70
1958;DHT22;979;51.076;13.748;2024-02-28T10:30:54;8.00;84.50
1958;DHT22;979;51.076;13.748;2024-02-28T10:33:26;8.00;84.60
1958;DHT22;979;51.076;13.748;2024-02-28T10:35:56;8.00;84.40
1958;DHT22;979;51.076;13.748;2024-02-28T10:38:26;8.00;84.30
1958;DHT22;979;51.076;13.748;2024-02-28T10:40:55;7.90;83.90
1958;DHT22;979;51.076;13.748;2024-02-28T10:43:26;7.80;83.60
1958;DHT22;979;51.076;13.748;2024-02-28T10:45:58;8.00;83.60
1958;DHT22;979;51.076;13.748;2024-02-28T10:48:53;7.70;83.20
1958;DHT22;979;51.076;13.748;2024-02-28T10:51:24;7.60;83.20
1958;DHT22;979;51.076;13.748;2024-02-28T10:54:01;7.40;83.10
1958;DHT22;979;51.076;13.748;2024-02-28T10:56:30;7.50;83.40
1958;DHT22;979;51.076;13.748;2024-02-28T10:58:59;7.50;83.50
1958;DHT22;979;51.076;13.748;2024-02-28T11:01:29;7.40;83.20
1958;DHT22;979;51.076;13.748;2024-02-28T11:03:57;7.30;83.20
1958;DHT22;979;51.076;13.748;2024-02-28T11:06:26;7.30;83.40
1958;DHT22;979;51.076;13.748;2024-02-28T11:08:55;7.50;83.80
1958;DHT22;979;51.076;13.748;2024-02-28T11:11:35;7.40;83.80
1958;DHT22;979;51.076;13.748;2024-02-28T11:14:06;7.50;84.00
1958;DHT22;979;51.076;13.748;2024-02-28T11:16:59;7.60;83.90
1958;DHT22;979;51.076;13.748;2024-02-28T11:19:29;8.00;84.00
1958;DHT22;979;51.076;13.748;2024-02-28T11:21:59;7.80;83.70
1958;DHT22;979;51.076;13.748;2024-02-28T11:24:53;7.90;83.80
1958;DHT22;979;51.076;13.748;2024-02-28T11:27:46;7.90;83.40
1958;DHT22;979;51.076;13.748;2024-02-28T11:30:18;8.00;83.20
1958;DHT22;979;51.076;13.748;2024-02-28T11:37:13;8.20;83.60
1958;DHT22;979;51.076;13.748;2024-02-28T11:41:14;8.30;83.20
1958;DHT22;979;51.076;13.748;2024-02-28T12:00:16;8.60;81.00
1958;DHT22;979;51.076;13.748;2024-02-28T12:02:48;8.50;80.90
1958;DHT22;979;51.076;13.748;2024-02-28T12:05:24;8.50;80.80
1958;DHT22;979;51.076;13.748;2024-02-28T12:07:58;8.40;80.80
1958;DHT22;979;51.076;13.748;2024-02-28T12:10:28;8.40;80.80
1958;DHT22;979;51.076;13.748;2024-02-28T12:12:59;8.50;81.60
1958;DHT22;979;51.076;13.748;2024-02-28T12:15:30;8.30;80.70
1958;DHT22;979;51.076;13.748;2024-02-28T12:17:59;8.40;80.90
1958;DHT22;979;51.076;13.748;2024-02-28T12:20:32;8.30;80.70
1958;DHT22;979;51.076;13.748;2024-02-28T12:23:00;8.30;80.30
1958;DHT22;979;51.076;13.748;2024-02-28T12:25:31;8.30;80.40
1958;DHT22;979;51.076;13.748;2024-02-28T12:27:59;8.40;80.50
1958;DHT22;979;51.076;13.748;2024-02-28T12:30:30;8.40;79.90
1958;DHT22;979;51.076;13.748;2024-02-28T12:32:58;8.40;80.00
1958;DHT22;979;51.076;13.748;2024-02-28T12:35:27;8.70;80.10
1958;DHT22;979;51.076;13.748;2024-02-28T12:38:05;8.50;79.90
1958;DHT22;979;51.076;13.748;2024-02-28T12:57:17;8.40;78.50
1958;DHT22;979;51.076;13.748;2024-02-28T12:59:53;8.40;78.20
1958;DHT22;979;51.076;13.748;2024-02-28T13:02:50;8.20;78.10
1958;DHT22;979;51.076;13.748;2024-02-28T13:05:20;8.40;78.30
1958;DHT22;979;51.076;13.748;2024-02-28T13:07:49;8.40;78.60
1958;DHT22;979;51.076;13.748;2024-02-28T13:10:21;8.40;78.60
1958;DHT22;979;51.076;13.748;2024-02-28T13:12:57;8.60;78.90
1958;DHT22;979;51.076;13.748;2024-02-28T13:15:26;8.70;78.70
1958;DHT22;979;51.076;13.748;2024-02-28T13:18:00;8.80;78.50
1958;DHT22;979;51.076;13.748;2024-02-28T13:20:39;8.80;78.50
1958;DHT22;979;51.076;13.748;2024-02-28T13:23:08;8.90;78.30
1958;DHT22;979;51.076;13.748;2024-02-28T13:25:37;9.00;78.10
1958;DHT22;979;51.076;13.748;2024-02-28T13:28:26;9.00;77.80
1958;DHT22;979;51.076;13.748;2024-02-28T13:51:19;9.00;76.00
1958;DHT22;979;51.076;13.748;2024-02-28T13:53:55;9.10;76.00
1958;DHT22;979;51.076;13.748;2024-02-28T13:56:32;9.10;75.90
1958;DHT22;979;51.076;13.748;2024-02-28T13:59:17;9.20;75.90
1958;DHT22;979;51.076;13.748;2024-02-28T14:01:57;9.30;75.90
1958;DHT22;979;51.076;13.748;2024-02-28T14:04:29;9.40;75.20
1958;DHT22;979;51.076;13.748;2024-02-28T14:07:00;9.80;77.30
1958;DHT22;979;51.076;13.748;2024-02-28T14:09:33;11.00;77.70
1958;DHT22;979;51.076;13.748;2024-02-28T14:12:08;12.10;76.30
1958;DHT22;979;51.076;13.748;2024-02-28T14:17:21;12.80;73.00
1958;DHT22;979;51.076;13.748;2024-02-28T14:19:49;12.80;73.00
1958;DHT22;979;51.076;13.748;2024-02-28T14:22:20;12.80;73.00
1958;DHT22;979;51.076;13.748;2024-02-28T14:24:48;12.80;72.30
1958;DHT22;979;51.076;13.748;2024-02-28T14:27:17;12.70;72.10
1958;DHT22;979;51.076;13.748;2024-02-28T14:29:47;12.60;71.00
1958;DHT22;979;51.076;13.748;2024-02-28T14:32:16;12.30;70.50
1958;DHT22;979;51.076;13.748;2024-02-28T14:34:45;12.20;70.40
1958;DHT22;979;51.076;13.748;2024-02-28T14:37:15;11.90;69.90
1958;DHT22;979;51.076;13.748;2024-02-28T14:39:53;11.50;69.80
1958;DHT22;979;51.076;13.748;2024-02-28T14:42:21;11.60;70.00
1958;DHT22;979;51.076;13.748;2024-02-28T14:44:50;11.60;70.10
1958;DHT22;979;51.076;13.748;2024-02-28T14:47:20;11.40;69.70
1958;DHT22;979;51.076;13.748;2024-02-28T14:49:49;11.30;69.70
1958;DHT22;979;51.076;13.748;2024-02-28T14:52:18;11.20;69.60
1958;DHT22;979;51.076;13.748;2024-02-28T14:54:48;11.10;69.00
1958;DHT22;979;51.076;13.748;2024-02-28T14:57:17;11.00;69.10
1958;DHT22;979;51.076;13.748;2024-02-28T14:59:45;10.80;69.00
1958;DHT22;979;51.076;13.748;2024-02-28T15:02:14;10.80;69.10
1958;DHT22;979;51.076;13.748;2024-02-28T15:04:43;10.70;68.70
1958;DHT22;979;51.076;13.748;2024-02-28T15:07:13;10.70;69.30
1958;DHT22;979;51.076;13.748;2024-02-28T15:09:41;10.60;69.00
1958;DHT22;979;51.076;13.748;2024-02-28T15:24:53;10.40;68.30
1958;DHT22;979;51.076;13.748;2024-02-28T15:31:49;10.40;68.50
1958;DHT22;979;51.076;13.748;2024-02-28T15:34:01;10.40;68.80
1958;DHT22;979;51.076;13.748;2024-02-28T15:58:17;10.20;68.40
1958;DHT22;979;51.076;13.748;2024-02-28T16:26:08;9.10;69.40
1958;DHT22;979;51.076;13.748;2024-02-28T16:33:33;8.80;69.60
1958;DHT22;979;51.076;13.748;2024-02-28T16:40:56;8.40;69.70
1958;DHT22;979;51.076;13.748;2024-02-28T16:43:27;8.30;70.20
1958;DHT22;979;51.076;13.748;2024-02-28T16:45:55;8.10;70.20
1958;DHT22;979;51.076;13.748;2024-02-28T17:01:45;7.30;70.00
1958;DHT22;979;51.076;13.748;2024-02-28T17:26:49;6.70;70.80
1958;DHT22;979;51.076;13.748;2024-02-28T17:29:18;6.60;71.20
1958;DHT22;979;51.076;13.748;2024-02-28T17:31:47;6.50;71.40
1958;DHT22;979;51.076;13.748;2024-02-28T17:34:16;6.40;71.60
1958;DHT22;979;51.076;13.748;2024-02-28T18:16:23;5.60;71.40
1958;DHT22;979;51.076;13.748;2024-02-28T18:27:29;5.20;71.40
1958;DHT22;979;51.076;13.748;2024-02-28T18:30:11;5.30;72.00
1958;DHT22;979;51.076;13.748;2024-02-28T18:32:41;5.30;71.80
1958;DHT22;979;51.076;13.748;2024-02-28T18:35:19;5.20;71.80
1958;DHT22;979;51.076;13.748;2024-02-28T18:47:50;5.00;71.90
1958;DHT22;979;51.076;13.748;2024-02-28T18:50:18;4.90;72.00
1958;DHT22;979;51.076;13.748;2024-02-28T18:52:50;4.90;72.00
1958;DHT22;979;51.076;13.748;2024-02-28T18:55:19;4.80;71.90
1958;DHT22;979;51.076;13.748;2024-02-28T18:57:52;4.80;72.00
1958;DHT22;979;51.076;13.748;2024-02-28T19:00:25;4.90;72.10
1958;DHT22;979;51.076;13.748;2024-02-28T19:02:56;4.90;72.10
1958;DHT22;979;51.076;13.748;2024-02-28T19:05:27;4.60;72.00
1958;DHT22;979;51.076;13.748;2024-02-28T19:07:55;4.60;72.00
1958;DHT22;979;51.076;13.748;2024-02-28T19:10:30;4.60;72.10
1958;DHT22;979;51.076;13.748;2024-02-28T19:12:59;4.50;72.00
1958;DHT22;979;51.076;13.748;2024-02-28T19:20:29;4.50;71.90
1958;DHT22;979;51.076;13.748;2024-02-28T19:22:59;4.40;72.00
1958;DHT22;979;51.076;13.748;2024-02-28T20:08:00;3.80;72.10
1958;DHT22;979;51.076;13.748;2024-02-28T20:10:28;4.00;72.30
1958;DHT22;979;51.076;13.748;2024-02-28T20:13:02;3.90;72.40
1958;DHT22;979;51.076;13.748;2024-02-28T20:15:31;3.70;72.20
1958;DHT22;979;51.076;13.748;2024-02-28T20:18:01;3.60;72.10
1958;DHT22;979;51.076;13.748;2024-02-28T20:24:43;3.50;71.90
1958;DHT22;979;51.076;13.748;2024-02-28T20:27:50;3.70;72.30
1958;DHT22;979;51.076;13.748;2024-02-28T20:30:45;3.80;72.30
1958;DHT22;979;51.076;13.748;2024-02-28T20:33:18;3.50;72.20
1958;DHT22;979;51.076;13.748;2024-02-28T21:21:57;2.80;72.10
1958;DHT22;979;51.076;13.748;2024-02-28T21:25:01;3.00;72.60
1958;DHT22;979;51.076;13.748;2024-02-28T21:27:53;2.90;72.70
1958;DHT22;979;51.076;13.748;2024-02-28T21:30:22;2.90;72.80
1958;DHT22;979;51.076;13.748;2024-02-28T21:32:51;3.10;72.90
1958;DHT22;979;51.076;13.748;2024-02-28T21:35:20;3.10;73.70
1958;DHT22;979;51.076;13.748;2024-02-28T21:37:50;2.90;72.90
1958;DHT22;979;51.076;13.748;2024-02-28T21:40:20;3.10;73.10
1958;DHT22;979;51.076;13.748;2024-02-28T21:42:54;2.90;72.90
1958;DHT22;979;51.076;13.748;2024-02-28T21:45:24;2.90;73.00
1958;DHT22;979;51.076;13.748;2024-02-28T21:47:52;2.90;73.00
1958;DHT22;979;51.076;13.748;2024-02-28T21:50:22;2.80;73.30
1958;DHT22;979;51.076;13.748;2024-02-28T21:52:53;3.10;73.50
1958;DHT22;979;51.076;13.748;2024-02-28T21:55:26;2.90;73.40
1958;DHT22;979;51.076;13.748;2024-02-28T21:57:56;2.80;73.30
1958;DHT22;979;51.076;13.748;2024-02-28T22:00:26;2.80;73.30
1958;DHT22;979;51.076;13.748;2024-02-28T22:02:55;2.80;73.50
1958;DHT22;979;51.076;13.748;2024-02-28T22:05:24;2.80;73.60
1958;DHT22;979;51.076;13.748;2024-02-28T22:07:53;2.80;73.50
1958;DHT22;979;51.076;13.748;2024-02-28T22:10:22;2.70;73.70
1958;DHT22;979;51.076;13.748;2024-02-28T22:12:50;3.00;74.00
1958;DHT22;979;51.076;13.748;2024-02-28T22:15:22;2.70;73.80
1958;DHT22;979;51.076;13.748;2024-02-28T22:17:50;2.80;73.90
1958;DHT22;979;51.076;13.748;2024-02-28T22:20:20;2.60;73.80
1958;DHT22;979;51.076;13.748;2024-02-28T22:22:49;2.60;73.90
1958;DHT22;979;51.076;13.748;2024-02-28T22:25:19;2.60;73.80
1958;DHT22;979;51.076;13.748;2024-02-28T22:27:48;2.60;74.00
1958;DHT22;979;51.076;13.748;2024-02-28T22:30:17;2.80;74.20
1958;DHT22;979;51.076;13.748;2024-02-28T22:32:45;2.50;74.00
1958;DHT22;979;51.076;13.748;2024-02-28T22:35:14;2.50;74.00
1958;DHT22;979;51.076;13.748;2024-02-28T22:37:42;2.60;74.40
1958;DHT22;979;51.076;13.748;2024-02-28T22:40:11;2.60;74.20
1958;DHT22;979;51.076;13.748;2024-02-28T22:42:43;2.60;74.40
1958;DHT22;979;51.076;13.748;2024-02-28T22:45:11;2.80;74.90
1958;DHT22;979;51.076;13.748;2024-02-28T22:47:40;2.70;74.70
1958;DHT22;979;51.076;13.748;2024-02-28T22:50:09;2.70;74.60
1958;DHT22;979;51.076;13.748;2024-02-28T22:52:40;2.80;75.10
1958;DHT22;979;51.076;13.748;2024-02-28T22:55:29;2.80;74.80
1958;DHT22;979;51.076;13.748;2024-02-28T22:58:18;2.90;74.90
1958;DHT22;979;51.076;13.748;2024-02-28T23:00:46;2.90;75.00